Time;durP1;ratioP1;P1;durP2;ratioP2;P2;SDS_P1;SDS_P2;PMS_P1;PMS_P2;Temp;Humidity;BMP_temperature;BMP_pressure;BME280_temperature;BME280_humidity;BME280_pressure;Samples;Min_cycle;Max_cycle;Signal;HPM_P1;HPM_P2
2022/04/30 00:00:05;;;;;;;14.90;7.70;;;9.70;68.60;;;;;;5059075;28;20200;-84
2022/04/30 00:02:31;;;;;;;10.90;7.70;;;9.70;68.70;;;;;;5058504;28;20426;-85
2022/04/30 00:04:57;;;;;;;10.43;7.60;;;9.70;68.50;;;;;;5040723;28;20192;-86
2022/04/30 00:07:23;;;;;;;20.87;8.03;;;9.70;68.00;;;;;;5058097;28;20189;-86
2022/04/30 00:09:49;;;;;;;9.53;7.27;;;9.50;68.50;;;;;;5075605;28;20457;-85
2022/04/30 00:12:16;;;;;;;11.77;8.43;;;9.50;69.20;;;;;;5057423;28;20223;-85
2022/04/30 00:14:47;;;;;;;15.40;8.23;;;9.40;69.40;;;;;;5057712;28;20644;-85
2022/04/30 00:17:13;;;;;;;10.73;7.68;;;9.40;69.50;;;;;;5057648;28;20165;-85
2022/04/30 00:19:39;;;;;;;12.50;8.20;;;9.40;69.40;;;;;;5058285;28;20176;-86
2022/04/30 00:22:05;;;;;;;13.10;8.53;;;9.50;69.00;;;;;;5056880;28;20177;-85
2022/04/30 00:24:31;;;;;;;12.50;8.40;;;9.40;69.90;;;;;;5056728;28;20656;-85
2022/04/30 00:26:59;;;;;;;13.07;8.23;;;9.30;69.80;;;;;;5056695;28;20195;-85
2022/04/30 00:29:27;;;;;;;10.18;7.55;;;9.40;69.30;;;;;;5057627;28;20470;-85
2022/04/30 00:31:54;;;;;;;8.65;7.25;;;9.30;69.40;;;;;;5057533;28;20667;-84
2022/04/30 00:34:20;;;;;;;9.68;7.45;;;9.30;69.60;;;;;;5058434;28;20183;-85
2022/04/30 00:36:46;;;;;;;11.85;7.95;;;9.20;69.60;;;;;;5074803;28;20192;-86
2022/04/30 00:39:12;;;;;;;9.73;7.10;;;9.30;69.30;;;;;;5056647;28;20180;-85
2022/04/30 00:41:45;;;;;;;13.47;7.17;;;9.20;69.40;;;;;;5058217;28;20200;-85
2022/04/30 00:44:11;;;;;;;11.45;7.55;;;9.20;69.30;;;;;;5084922;28;20411;-85
2022/04/30 00:46:43;;;;;;;12.00;7.37;;;9.10;69.70;;;;;;5056840;28;20648;-85
2022/04/30 00:49:08;;;;;;;12.57;9.10;;;9.10;69.70;;;;;;5079470;28;20402;-88
2022/04/30 00:51:38;;;;;;;11.87;7.90;;;9.10;70.00;;;;;;5064085;28;20208;-84
2022/04/30 00:54:05;;;;;;;13.23;8.70;;;9.00;70.20;;;;;;5077734;28;20176;-84
2022/04/30 00:56:55;;;;;;;17.67;9.48;;;9.00;70.30;;;;;;5059774;28;20183;-86
2022/04/30 00:59:23;;;;;;;13.73;8.00;;;8.90;70.60;;;;;;5077399;28;20172;-84
2022/04/30 01:01:49;;;;;;;12.70;7.95;;;8.90;70.40;;;;;;5062022;28;20197;-84
2022/04/30 01:04:16;;;;;;;10.75;7.95;;;8.90;70.50;;;;;;5082367;28;20180;-85
2022/04/30 01:06:49;;;;;;;9.10;6.60;;;8.90;71.00;;;;;;5081578;28;20588;-85
2022/04/30 01:09:23;;;;;;;10.75;7.20;;;8.90;71.00;;;;;;5061346;28;20587;-84
2022/04/30 01:11:58;;;;;;;9.10;6.65;;;8.90;70.50;;;;;;5060303;28;20200;-86
2022/04/30 01:14:29;;;;;;;10.50;7.00;;;8.90;70.70;;;;;;5078108;28;20179;-87
2022/04/30 01:16:57;;;;;;;15.32;7.90;;;8.80;70.40;;;;;;5059676;28;20185;-85
2022/04/30 01:19:27;;;;;;;10.68;6.93;;;8.80;70.20;;;;;;5059547;28;20176;-85
2022/04/30 01:21:57;;;;;;;9.15;6.40;;;8.70;70.60;;;;;;5077582;28;20204;-85
2022/04/30 01:24:26;;;;;;;9.10;6.30;;;8.70;71.10;;;;;;5060051;28;20250;-85
2022/04/30 01:26:52;;;;;;;12.43;8.63;;;8.70;70.90;;;;;;5060696;28;20180;-85
2022/04/30 01:29:23;;;;;;;11.52;7.18;;;8.70;70.90;;;;;;5078726;28;20181;-85
2022/04/30 01:37:26;;;;;;;10.68;7.72;;;8.60;71.80;;;;;;5079536;28;20587;-85
2022/04/30 01:40:14;;;;;;;10.52;7.32;;;8.50;72.10;;;;;;5060286;28;20270;-85
2022/04/30 01:42:45;;;;;;;7.80;6.30;;;8.60;71.30;;;;;;5060376;28;20257;-84
2022/04/30 01:45:11;;;;;;;14.43;7.28;;;8.50;71.10;;;;;;5077852;28;20184;-85
2022/04/30 01:47:43;;;;;;;10.93;6.30;;;8.50;71.90;;;;;;5061086;28;20188;-86
2022/04/30 01:50:10;;;;;;;7.88;6.43;;;8.50;72.40;;;;;;5056992;28;20208;-86
2022/04/30 01:52:36;;;;;;;10.00;5.40;;;8.50;72.20;;;;;;5059458;28;20212;-86
2022/04/30 01:55:10;;;;;;;11.23;6.60;;;8.50;72.30;;;;;;5059715;28;20554;-85
2022/04/30 01:57:40;;;;;;;10.48;7.10;;;8.40;72.10;;;;;;5060078;28;20657;-85
2022/04/30 02:00:09;;;;;;;12.27;6.82;;;8.40;72.10;;;;;;5077251;28;20215;-85
2022/04/30 02:02:36;;;;;;;9.23;5.78;;;8.40;72.60;;;;;;5062984;28;20176;-85
2022/04/30 02:05:06;;;;;;;9.30;6.15;;;8.30;72.80;;;;;;5047923;28;20602;-85
2022/04/30 02:07:37;;;;;;;14.25;6.80;;;8.30;73.30;;;;;;5067355;28;20176;-86
2022/04/30 02:10:06;;;;;;;10.75;6.80;;;8.40;73.00;;;;;;5067613;28;20284;-84
2022/04/30 02:12:32;;;;;;;12.15;6.35;;;8.30;72.80;;;;;;5077165;28;20671;-85
2022/04/30 02:14:59;;;;;;;8.60;6.30;;;8.30;73.50;;;;;;5079908;28;20169;-84
2022/04/30 02:17:29;;;;;;;10.43;6.40;;;8.30;73.60;;;;;;5044900;28;20192;-85
2022/04/30 02:23:01;;;;;;;11.55;7.28;;;8.30;73.70;;;;;;5077484;28;20195;-85
2022/04/30 02:25:39;;;;;;;9.20;6.20;;;8.30;73.10;;;;;;5044694;28;20202;-85
2022/04/30 02:28:08;;;;;;;11.52;6.55;;;8.30;72.90;;;;;;5078811;28;20636;-85
2022/04/30 02:30:36;;;;;;;9.02;6.63;;;8.20;73.30;;;;;;5079505;28;20212;-85
2022/04/30 02:33:08;;;;;;;9.95;6.80;;;8.20;73.70;;;;;;5065249;28;20658;-84
2022/04/30 02:35:35;;;;;;;10.15;6.15;;;8.10;74.40;;;;;;5073546;28;20180;-84
2022/04/30 02:38:06;;;;;;;9.32;6.15;;;8.20;74.00;;;;;;5056345;28;20204;-84
2022/04/30 02:40:34;;;;;;;10.45;6.68;;;8.20;73.40;;;;;;5064852;28;20204;-85
2022/04/30 02:43:06;;;;;;;13.15;7.32;;;8.10;73.60;;;;;;5059629;28;20185;-85
2022/04/30 02:45:33;;;;;;;9.00;6.45;;;8.20;73.80;;;;;;5076878;28;20687;-85
2022/04/30 02:47:59;;;;;;;14.13;6.50;;;8.20;73.70;;;;;;5058865;28;20188;-86
2022/04/30 02:50:25;;;;;;;12.93;7.07;;;8.10;73.40;;;;;;5076617;28;20212;-87
2022/04/30 02:52:54;;;;;;;9.20;5.80;;;8.10;73.90;;;;;;5060389;28;20424;-85
2022/04/30 02:55:24;;;;;;;9.70;6.63;;;8.10;73.90;;;;;;5080502;28;20184;-85
2022/04/30 03:00:41;;;;;;;11.57;6.88;;;8.10;74.20;;;;;;5079970;28;20256;-85
2022/04/30 03:03:08;;;;;;;9.45;6.60;;;8.00;74.50;;;;;;5062751;28;20629;-84
2022/04/30 03:05:40;;;;;;;16.02;7.40;;;8.00;74.50;;;;;;5068752;28;20189;-85
2022/04/30 03:08:13;;;;;;;9.25;6.38;;;8.00;75.00;;;;;;5081881;28;20257;-84
2022/04/30 03:10:44;;;;;;;12.05;7.50;;;7.90;74.90;;;;;;5060887;28;20336;-85
2022/04/30 03:13:14;;;;;;;10.63;6.88;;;7.90;75.10;;;;;;5062414;28;20172;-85
2022/04/30 03:15:45;;;;;;;11.50;6.80;;;8.00;74.70;;;;;;5061498;28;20172;-84
2022/04/30 03:23:39;;;;;;;18.00;8.80;;;7.70;75.80;;;;;;5093780;28;20191;-85
2022/04/30 03:26:07;;;;;;;13.65;8.20;;;7.70;76.00;;;;;;5069987;28;20659;-85
2022/04/30 03:28:33;;;;;;;14.02;7.30;;;7.70;76.40;;;;;;5076309;28;20761;-85
2022/04/30 03:31:01;;;;;;;10.55;7.03;;;7.70;76.20;;;;;;5076543;28;20212;-85
2022/04/30 03:33:27;;;;;;;11.60;8.25;;;7.70;75.80;;;;;;5059709;28;20183;-85
2022/04/30 03:35:54;;;;;;;13.02;6.18;;;7.80;75.70;;;;;;5063295;28;20272;-85
2022/04/30 03:38:20;;;;;;;13.77;7.65;;;7.70;75.30;;;;;;5066846;28;20172;-85
2022/04/30 03:40:48;;;;;;;9.90;7.23;;;7.80;75.80;;;;;;5064247;28;20211;-86
2022/04/30 03:43:16;;;;;;;13.48;7.53;;;7.70;76.40;;;;;;5074667;28;20920;-85
2022/04/30 03:45:42;;;;;;;13.73;8.05;;;7.70;76.60;;;;;;5050594;28;20181;-85
2022/04/30 03:48:09;;;;;;;12.82;7.63;;;7.70;76.30;;;;;;5074013;28;20255;-85
2022/04/30 03:50:34;;;;;;;15.00;8.15;;;7.70;76.40;;;;;;5057636;28;20208;-86
2022/04/30 03:53:00;;;;;;;17.37;7.43;;;7.70;76.60;;;;;;5073609;28;20181;-85
2022/04/30 03:55:27;;;;;;;13.80;8.20;;;7.60;76.80;;;;;;5057151;28;20417;-85
2022/04/30 03:57:53;;;;;;;15.98;8.50;;;7.60;77.10;;;;;;5074213;28;20480;-85
2022/04/30 04:00:25;;;;;;;12.85;8.18;;;7.60;77.30;;;;;;5054506;28;20208;-85
2022/04/30 04:02:51;;;;;;;12.93;7.50;;;7.60;77.00;;;;;;5050801;28;20172;-85
2022/04/30 04:05:17;;;;;;;12.88;8.05;;;7.60;76.70;;;;;;5056071;28;20241;-85
2022/04/30 04:07:44;;;;;;;11.63;6.90;;;7.60;76.70;;;;;;5056492;28;20265;-85
2022/04/30 04:10:11;;;;;;;10.00;7.82;;;7.60;77.00;;;;;;5056214;28;20211;-85
2022/04/30 04:12:37;;;;;;;13.38;8.38;;;7.50;77.50;;;;;;5072740;28;20549;-85
2022/04/30 04:17:49;;;;;;;11.82;7.78;;;7.50;78.00;;;;;;5068842;28;20163;-85
2022/04/30 04:20:17;;;;;;;15.17;10.03;;;7.50;77.80;;;;;;5056016;28;20287;-85
2022/04/30 04:22:44;;;;;;;15.98;8.93;;;7.50;77.40;;;;;;5055605;28;20934;-85
2022/04/30 04:28:10;;;;;;;12.93;8.02;;;7.50;78.00;;;;;;5000856;28;20572;-85
2022/04/30 04:30:36;;;;;;;14.17;9.50;;;7.50;78.20;;;;;;5060907;28;20262;-85
2022/04/30 04:33:02;;;;;;;14.67;8.23;;;7.50;78.30;;;;;;5055973;28;20350;-85
2022/04/30 04:35:28;;;;;;;14.57;9.30;;;7.60;78.10;;;;;;5057061;28;20523;-85
2022/04/30 04:37:54;;;;;;;11.52;7.72;;;7.60;77.90;;;;;;5056467;28;20176;-85
2022/04/30 04:40:20;;;;;;;15.00;9.27;;;7.60;77.90;;;;;;5055200;28;20207;-85
2022/04/30 04:42:46;;;;;;;17.23;10.20;;;7.60;78.00;;;;;;5055983;28;20427;-85
2022/04/30 04:45:13;;;;;;;17.30;10.30;;;7.60;78.20;;;;;;5057156;28;20418;-85
2022/04/30 04:47:41;;;;;;;18.05;10.88;;;7.70;78.40;;;;;;5075718;28;20664;-85
2022/04/30 04:50:13;;;;;;;16.77;9.32;;;7.70;78.80;;;;;;5076143;28;20204;-85
2022/04/30 04:52:43;;;;;;;16.40;10.23;;;7.70;79.00;;;;;;5052688;28;20288;-85
2022/04/30 04:55:10;;;;;;;20.85;10.07;;;7.70;79.10;;;;;;5055652;28;20172;-85
2022/04/30 04:57:36;;;;;;;21.08;9.85;;;7.70;78.90;;;;;;5056045;28;20207;-86
2022/04/30 05:00:04;;;;;;;18.02;9.40;;;7.70;78.80;;;;;;5048785;28;20197;-86
2022/04/30 05:02:30;;;;;;;17.33;9.98;;;7.70;78.90;;;;;;5052461;28;20177;-85
2022/04/30 05:04:56;;;;;;;15.20;9.13;;;7.80;78.80;;;;;;5052556;28;20181;-86
2022/04/30 05:07:22;;;;;;;16.70;10.03;;;7.80;78.80;;;;;;5073464;28;20187;-86
2022/04/30 05:09:48;;;;;;;14.20;10.02;;;7.90;78.70;;;;;;5056001;28;20308;-85
2022/04/30 05:12:18;;;;;;;17.87;11.30;;;8.00;78.00;;;;;;5074533;28;20271;-86
2022/04/30 05:14:46;;;;;;;25.60;11.82;;;8.00;77.90;;;;;;5055279;28;20230;-85
2022/04/30 05:17:13;;;;;;;18.38;10.80;;;8.00;77.90;;;;;;5054714;28;20268;-85
2022/04/30 05:19:39;;;;;;;24.00;13.90;;;8.10;78.10;;;;;;5045490;28;20597;-84
2022/04/30 05:22:05;;;;;;;17.27;11.03;;;8.00;78.10;;;;;;5070474;28;20184;-84
2022/04/30 05:24:30;;;;;;;18.10;12.40;;;8.10;78.10;;;;;;5090906;28;20295;-84
2022/04/30 05:26:56;;;;;;;19.40;12.80;;;8.20;78.00;;;;;;5087389;28;20458;-85
2022/04/30 05:29:22;;;;;;;21.13;12.50;;;8.30;78.00;;;;;;5069783;28;20418;-84
2022/04/30 05:31:48;;;;;;;18.70;11.70;;;8.50;77.60;;;;;;5060847;28;20288;-85
2022/04/30 05:34:13;;;;;;;17.67;10.47;;;8.60;77.20;;;;;;5064893;28;20623;-85
2022/04/30 05:36:39;;;;;;;24.10;11.93;;;8.90;76.10;;;;;;5066330;28;20200;-85
2022/04/30 05:39:06;;;;;;;19.73;11.03;;;8.90;75.20;;;;;;5075926;28;20256;-84
2022/04/30 05:41:31;;;;;;;19.02;13.35;;;8.90;75.10;;;;;;5075431;28;20430;-84
2022/04/30 05:43:57;;;;;;;19.20;12.00;;;8.90;74.80;;;;;;5056145;28;20195;-84
2022/04/30 05:46:23;;;;;;;19.27;11.23;;;9.00;74.60;;;;;;5056767;28;20177;-84
2022/04/30 05:48:49;;;;;;;14.80;10.77;;;8.90;75.10;;;;;;5036270;28;20177;-84
2022/04/30 05:51:15;;;;;;;18.00;11.00;;;8.90;75.50;;;;;;5054259;28;20823;-84
2022/04/30 05:53:41;;;;;;;16.60;11.13;;;9.10;75.40;;;;;;5033901;28;20491;-83
2022/04/30 05:56:07;;;;;;;16.00;10.37;;;9.30;73.90;;;;;;5058245;28;20416;-86
2022/04/30 05:58:33;;;;;;;16.58;10.60;;;9.40;73.60;;;;;;5063346;28;20486;-86
2022/04/30 06:00:59;;;;;;;15.32;9.25;;;9.40;73.60;;;;;;5071081;28;20263;-85
2022/04/30 06:03:25;;;;;;;18.27;10.80;;;9.40;73.20;;;;;;5064084;28;20181;-85
2022/04/30 06:05:51;;;;;;;16.27;10.25;;;9.50;73.00;;;;;;5074058;28;20426;-85
2022/04/30 06:08:17;;;;;;;15.63;9.67;;;9.70;72.50;;;;;;5065727;28;20203;-85
2022/04/30 06:10:42;;;;;;;14.43;9.97;;;9.70;72.00;;;;;;5065374;28;20239;-85
2022/04/30 06:13:09;;;;;;;14.00;10.13;;;9.70;71.80;;;;;;5068357;28;20433;-85
2022/04/30 06:15:35;;;;;;;18.85;11.68;;;9.80;71.30;;;;;;5085079;28;20418;-85
2022/04/30 06:18:01;;;;;;;15.67;10.90;;;9.80;71.00;;;;;;5087403;28;20224;-85
2022/04/30 06:20:27;;;;;;;20.43;12.20;;;9.70;71.40;;;;;;5059468;28;20189;-86
2022/04/30 06:22:52;;;;;;;17.47;11.30;;;9.80;71.30;;;;;;5058983;28;20191;-86
2022/04/30 06:25:20;;;;;;;16.40;11.37;;;9.80;71.10;;;;;;5055609;28;20183;-85
2022/04/30 06:27:46;;;;;;;16.75;10.75;;;9.80;71.20;;;;;;5059065;28;20173;-85
2022/04/30 06:30:12;;;;;;;16.90;11.30;;;9.90;71.70;;;;;;5059452;28;20573;-86
2022/04/30 06:32:38;;;;;;;13.75;9.18;;;10.30;70.40;;;;;;5060516;28;20267;-86
2022/04/30 06:35:04;;;;;;;12.57;9.20;;;10.70;69.50;;;;;;5057917;28;20204;-85
2022/04/30 06:37:29;;;;;;;9.55;8.65;;;11.20;66.80;;;;;;5076368;28;20403;-85
2022/04/30 06:39:55;;;;;;;9.80;8.43;;;11.30;66.20;;;;;;5055785;28;20211;-85
2022/04/30 06:42:21;;;;;;;9.43;7.80;;;11.60;66.10;;;;;;5046870;28;20706;-85
2022/04/30 06:44:47;;;;;;;11.40;8.20;;;12.00;64.30;;;;;;5047785;28;20639;-86
2022/04/30 06:47:14;;;;;;;9.15;7.10;;;12.30;61.90;;;;;;5074148;28;20177;-85
2022/04/30 06:49:40;;;;;;;8.85;7.00;;;12.60;60.80;;;;;;5072463;28;20200;-88
2022/04/30 06:52:07;;;;;;;9.70;6.68;;;12.40;61.10;;;;;;5054872;28;20169;-87
2022/04/30 06:57:20;;;;;;;13.30;7.43;;;12.20;59.70;;;;;;5075596;28;20650;-87
2022/04/30 06:59:46;;;;;;;10.05;6.93;;;12.10;59.80;;;;;;5057265;28;20188;-86
2022/04/30 07:02:17;;;;;;;8.80;7.37;;;12.10;59.70;;;;;;5058295;28;20180;-86
2022/04/30 07:04:46;;;;;;;7.47;6.68;;;12.00;59.40;;;;;;5075482;28;20430;-86
2022/04/30 07:07:12;;;;;;;10.93;6.72;;;12.00;59.50;;;;;;5070971;28;20173;-87
2022/04/30 07:09:39;;;;;;;8.38;6.95;;;11.90;60.00;;;;;;5081678;28;20662;-86
2022/04/30 07:12:09;;;;;;;9.52;6.18;;;12.00;59.80;;;;;;5059083;28;20267;-85
2022/04/30 07:14:36;;;;;;;7.70;6.22;;;12.10;60.30;;;;;;5063571;28;20172;-86
2022/04/30 07:17:06;;;;;;;8.88;5.90;;;12.10;59.80;;;;;;5098089;28;20176;-86
2022/04/30 07:19:34;;;;;;;8.18;6.55;;;11.80;60.20;;;;;;5079428;28;20180;-87
2022/04/30 07:22:00;;;;;;;7.85;5.85;;;11.70;60.20;;;;;;5058548;28;20220;-87
2022/04/30 07:24:27;;;;;;;12.75;7.40;;;11.60;60.20;;;;;;5083792;28;20191;-87
2022/04/30 07:26:53;;;;;;;9.90;7.47;;;11.50;61.20;;;;;;5064680;28;20220;-87
2022/04/30 07:29:18;;;;;;;15.07;7.25;;;11.50;61.30;;;;;;5066837;28;20181;-87
2022/04/30 07:31:44;;;;;;;8.73;6.57;;;11.30;61.80;;;;;;5058850;28;20745;-86
2022/04/30 07:34:10;;;;;;;10.93;6.67;;;11.40;61.90;;;;;;5079253;28;20956;-87
2022/04/30 07:36:37;;;;;;;11.77;6.20;;;11.30;62.50;;;;;;5083979;28;20252;-87
2022/04/30 07:39:03;;;;;;;10.82;6.63;;;11.40;62.10;;;;;;5078513;28;21060;-87
2022/04/30 07:41:29;;;;;;;8.23;6.90;;;11.40;62.00;;;;;;5062324;28;20299;-87
2022/04/30 07:43:55;;;;;;;8.07;7.27;;;11.60;61.70;;;;;;5080503;28;20197;-87
2022/04/30 07:46:22;;;;;;;10.50;6.43;;;11.80;60.90;;;;;;5059119;28;20423;-88
2022/04/30 07:48:48;;;;;;;12.00;6.90;;;12.00;60.30;;;;;;5075799;28;20227;-88
2022/04/30 07:51:18;;;;;;;8.48;6.20;;;12.10;59.90;;;;;;5057249;28;20234;-87
2022/04/30 07:53:47;;;;;;;11.52;7.53;;;12.30;59.70;;;;;;5063190;28;20177;-87
2022/04/30 07:56:15;;;;;;;11.63;6.90;;;12.40;59.30;;;;;;5058097;28;20177;-86
2022/04/30 07:58:40;;;;;;;11.57;6.20;;;12.10;60.00;;;;;;5056474;28;20233;-86
2022/04/30 08:01:07;;;;;;;6.70;4.90;;;12.40;58.70;;;;;;5057152;28;20283;-87
2022/04/30 08:03:34;;;;;;;6.60;5.88;;;12.40;58.20;;;;;;5068582;28;20529;-87
2022/04/30 08:06:00;;;;;;;9.10;6.53;;;12.20;58.00;;;;;;5057897;28;20188;-86
2022/04/30 08:08:27;;;;;;;7.70;6.85;;;12.30;57.60;;;;;;5067914;28;20185;-86
2022/04/30 08:10:53;;;;;;;8.40;6.47;;;12.30;57.10;;;;;;5075942;28;20215;-86
2022/04/30 08:13:18;;;;;;;9.13;5.10;;;12.20;56.00;;;;;;5105687;28;20171;-86
2022/04/30 08:15:44;;;;;;;7.20;6.50;;;12.20;56.40;;;;;;5067608;28;20771;-86
2022/04/30 08:18:10;;;;;;;9.50;6.33;;;12.10;56.10;;;;;;5054245;28;20197;-86
2022/04/30 08:20:40;;;;;;;8.20;5.88;;;12.10;56.30;;;;;;5056050;28;20676;-86
2022/04/30 08:23:07;;;;;;;7.03;6.32;;;12.10;56.60;;;;;;5052670;28;20337;-86
2022/04/30 08:25:35;;;;;;;8.95;5.97;;;12.30;56.70;;;;;;5047262;28;20200;-86
2022/04/30 08:28:02;;;;;;;7.80;6.10;;;12.40;57.00;;;;;;5055482;28;20180;-86
2022/04/30 08:30:27;;;;;;;7.68;6.90;;;12.40;56.00;;;;;;5058470;28;20204;-86
2022/04/30 08:32:53;;;;;;;13.53;8.50;;;12.20;56.60;;;;;;5037000;28;20253;-88
2022/04/30 08:35:19;;;;;;;8.07;7.27;;;12.00;57.50;;;;;;5061353;28;20422;-86
2022/04/30 08:37:45;;;;;;;7.83;6.57;;;12.20;56.90;;;;;;5074238;28;20517;-86
2022/04/30 08:40:11;;;;;;;7.53;6.40;;;12.30;56.60;;;;;;5056974;28;20212;-86
2022/04/30 08:42:37;;;;;;;9.80;7.07;;;12.30;56.20;;;;;;5038487;28;20180;-86
2022/04/30 08:45:06;;;;;;;8.32;6.35;;;12.30;55.50;;;;;;5055890;28;20226;-87
2022/04/30 08:47:41;;;;;;;6.95;6.20;;;12.30;55.80;;;;;;5056010;28;20294;-87
2022/04/30 08:50:08;;;;;;;7.80;6.45;;;12.30;56.30;;;;;;5069443;28;20263;-86
2022/04/30 08:52:34;;;;;;;10.18;7.57;;;12.40;56.30;;;;;;5047633;28;20272;-86
2022/04/30 08:55:00;;;;;;;11.45;8.35;;;12.40;56.90;;;;;;5075809;28;20237;-86
2022/04/30 08:57:25;;;;;;;10.80;8.43;;;12.40;57.00;;;;;;5061135;28;20204;-86
2022/04/30 08:59:52;;;;;;;10.43;7.20;;;12.30;56.90;;;;;;5055772;28;20187;-87
2022/04/30 09:02:17;;;;;;;10.00;7.50;;;12.40;56.80;;;;;;5074723;28;20472;-87
2022/04/30 09:04:46;;;;;;;10.53;6.93;;;12.30;57.30;;;;;;5053446;28;20177;-87
2022/04/30 09:07:17;;;;;;;10.00;7.30;;;12.40;56.90;;;;;;5040786;28;20419;-86
2022/04/30 09:09:43;;;;;;;7.53;6.72;;;12.50;57.00;;;;;;5056743;28;20230;-86
2022/04/30 09:12:13;;;;;;;8.82;5.22;;;12.50;57.20;;;;;;5056865;28;20191;-86
2022/04/30 09:14:41;;;;;;;5.55;4.95;;;12.70;55.70;;;;;;5078022;28;20249;-87
2022/04/30 09:17:11;;;;;;;5.70;5.00;;;12.70;55.10;;;;;;5060918;28;20203;-86
2022/04/30 09:19:54;;;;;;;4.47;4.07;;;12.60;53.70;;;;;;5057016;28;20551;-86
2022/04/30 09:22:34;;;;;;;9.13;4.15;;;12.40;52.80;;;;;;5034367;28;20184;-86
2022/04/30 09:25:12;;;;;;;5.15;4.65;;;12.40;53.70;;;;;;5065668;28;20183;-86
2022/04/30 09:27:45;;;;;;;5.75;5.13;;;12.50;53.30;;;;;;5059030;28;20203;-86
2022/04/30 09:30:17;;;;;;;6.13;5.53;;;12.10;55.30;;;;;;5059095;28;20622;-86
2022/04/30 09:32:43;;;;;;;5.07;4.57;;;12.00;56.90;;;;;;5059099;28;20218;-86
2022/04/30 09:38:06;;;;;;;6.32;4.93;;;12.10;56.30;;;;;;5071454;28;20188;-86
2022/04/30 09:40:31;;;;;;;5.73;4.30;;;12.30;55.80;;;;;;5061851;28;20201;-86
2022/04/30 09:42:58;;;;;;;6.50;4.50;;;12.40;55.30;;;;;;5050864;28;20497;-86
2022/04/30 09:45:25;;;;;;;4.90;4.32;;;12.50;55.30;;;;;;5057773;28;20181;-86
2022/04/30 09:47:52;;;;;;;5.53;4.43;;;12.90;53.10;;;;;;5059253;28;20191;-86
2022/04/30 09:55:53;;;;;;;5.20;4.18;;;13.10;51.40;;;;;;5078920;28;20210;-86
2022/04/30 09:58:27;;;;;;;10.52;6.22;;;12.70;52.80;;;;;;5046924;28;20216;-85
2022/04/30 10:00:59;;;;;;;5.18;4.68;;;13.00;52.10;;;;;;5078370;28;20253;-86
2022/04/30 10:03:28;;;;;;;7.70;5.53;;;13.20;52.20;;;;;;5097812;28;20207;-86
2022/04/30 10:05:59;;;;;;;6.43;4.78;;;13.30;51.10;;;;;;5057480;28;20213;-85
2022/04/30 10:08:28;;;;;;;5.68;5.07;;;13.30;51.10;;;;;;5057819;28;20194;-86
2022/04/30 10:11:06;;;;;;;8.07;5.00;;;12.90;52.40;;;;;;5058539;28;20672;-86
2022/04/30 10:13:53;;;;;;;5.32;4.82;;;12.50;53.20;;;;;;5075820;28;20196;-86
2022/04/30 10:16:25;;;;;;;7.50;5.78;;;12.80;52.10;;;;;;5050869;28;20180;-86
2022/04/30 10:19:15;;;;;;;9.23;6.05;;;12.90;51.70;;;;;;5038084;28;20200;-86
2022/04/30 10:21:41;;;;;;;6.35;5.75;;;12.90;52.10;;;;;;5096268;28;20551;-85
2022/04/30 10:24:12;;;;;;;9.13;4.65;;;13.00;51.60;;;;;;5055356;28;20293;-86
2022/04/30 10:26:39;;;;;;;6.13;5.53;;;13.10;50.20;;;;;;5058972;28;20226;-86
2022/04/30 10:29:12;;;;;;;7.68;5.32;;;13.10;50.10;;;;;;5042504;28;20199;-86
2022/04/30 10:31:46;;;;;;;7.97;6.30;;;13.00;51.50;;;;;;5054900;28;20562;-86
2022/04/30 10:34:13;;;;;;;7.18;5.38;;;13.00;51.20;;;;;;5062876;28;20191;-86
2022/04/30 10:36:40;;;;;;;6.80;5.93;;;13.10;51.00;;;;;;5064046;28;20176;-86
2022/04/30 10:39:09;;;;;;;5.53;4.97;;;13.40;49.50;;;;;;5061800;28;20188;-85
2022/04/30 10:41:54;;;;;;;7.57;6.47;;;13.50;49.10;;;;;;5061019;28;20227;-85
2022/04/30 10:44:32;;;;;;;8.85;6.93;;;13.20;50.50;;;;;;5057447;28;20180;-86
2022/04/30 10:47:13;;;;;;;6.90;6.20;;;13.20;50.60;;;;;;5072417;28;20187;-86
2022/04/30 10:49:39;;;;;;;7.38;6.05;;;13.10;51.90;;;;;;5051876;28;20188;-87
2022/04/30 10:52:05;;;;;;;6.70;6.00;;;12.90;52.80;;;;;;5075955;28;20180;-86
2022/04/30 10:54:33;;;;;;;7.80;7.00;;;12.90;53.30;;;;;;5058061;28;20177;-86
2022/04/30 10:57:04;;;;;;;7.63;6.75;;;12.90;53.20;;;;;;5038575;28;20197;-86
2022/04/30 10:59:30;;;;;;;8.80;6.28;;;13.10;53.40;;;;;;5054234;28;20196;-87
2022/04/30 11:02:02;;;;;;;7.27;6.03;;;13.50;52.30;;;;;;5075660;28;20207;-86
2022/04/30 11:04:28;;;;;;;8.32;5.63;;;13.70;51.20;;;;;;5058858;28;20437;-87
2022/04/30 11:06:56;;;;;;;7.00;6.03;;;14.20;48.90;;;;;;5076552;28;20636;-87
2022/04/30 11:09:23;;;;;;;8.68;6.75;;;14.10;48.80;;;;;;5057634;28;20770;-86
2022/04/30 11:11:50;;;;;;;8.85;5.50;;;13.50;50.50;;;;;;5057537;28;20204;-85
2022/04/30 11:14:17;;;;;;;9.35;6.35;;;13.40;50.30;;;;;;5057947;28;20207;-86
2022/04/30 11:16:49;;;;;;;8.35;7.20;;;13.20;51.60;;;;;;5057157;28;20637;-87
2022/04/30 11:19:21;;;;;;;8.77;7.10;;;13.40;51.40;;;;;;5076321;28;20184;-87
2022/04/30 11:21:54;;;;;;;10.02;7.72;;;13.20;52.10;;;;;;5060535;28;20281;-86
2022/04/30 11:24:28;;;;;;;7.80;6.50;;;13.20;52.90;;;;;;5057109;28;20196;-86
2022/04/30 11:27:05;;;;;;;9.23;7.55;;;13.30;52.60;;;;;;5084270;28;20248;-86
2022/04/30 11:29:47;;;;;;;7.60;6.90;;;13.40;52.30;;;;;;5076469;28;20172;-87
2022/04/30 11:32:23;;;;;;;8.05;7.30;;;13.50;53.30;;;;;;5041376;28;20207;-87
2022/04/30 11:34:54;;;;;;;8.13;6.65;;;14.00;50.30;;;;;;5050640;28;20545;-87
2022/04/30 11:37:20;;;;;;;9.05;6.28;;;13.90;50.50;;;;;;5057556;28;20177;-87
2022/04/30 11:39:46;;;;;;;9.30;7.37;;;13.90;50.70;;;;;;5075112;28;20264;-87
2022/04/30 11:42:11;;;;;;;8.93;7.40;;;14.10;51.00;;;;;;5056832;28;20457;-87
2022/04/30 11:44:37;;;;;;;10.20;8.13;;;14.10;51.20;;;;;;5049512;28;20879;-87
2022/04/30 11:47:07;;;;;;;10.80;8.50;;;14.00;51.80;;;;;;5080890;28;20184;-87
2022/04/30 11:49:33;;;;;;;9.10;8.20;;;13.70;52.60;;;;;;5075853;28;20165;-87
2022/04/30 11:52:00;;;;;;;9.67;7.80;;;13.70;53.20;;;;;;5057426;28;20262;-85
2022/04/30 11:54:28;;;;;;;9.60;7.95;;;13.70;54.30;;;;;;5059215;28;20423;-87
2022/04/30 11:56:56;;;;;;;15.75;8.02;;;13.70;53.20;;;;;;5057911;28;20251;-87
2022/04/30 11:59:34;;;;;;;10.70;7.45;;;13.70;53.70;;;;;;5058661;28;20210;-87
2022/04/30 12:02:08;;;;;;;10.93;7.78;;;13.60;53.10;;;;;;5059485;28;20200;-87
2022/04/30 12:04:35;;;;;;;11.95;8.07;;;13.80;52.70;;;;;;5059547;28;20212;-87
2022/04/30 12:07:07;;;;;;;8.73;7.82;;;13.90;52.60;;;;;;5043897;28;20185;-87
2022/04/30 12:09:38;;;;;;;11.25;7.38;;;13.90;52.40;;;;;;5078514;28;20613;-87
2022/04/30 12:12:19;;;;;;;11.00;7.85;;;14.20;50.10;;;;;;5060059;28;20698;-87
2022/04/30 12:14:57;;;;;;;14.02;7.25;;;14.30;49.70;;;;;;5056986;28;20172;-87
2022/04/30 12:17:27;;;;;;;6.93;6.22;;;14.20;50.50;;;;;;5057251;28;20183;-86
2022/04/30 12:26:13;;;;;;;12.98;5.95;;;13.40;52.30;;;;;;5075222;28;20260;-87
2022/04/30 12:28:50;;;;;;;8.95;6.47;;;13.00;53.50;;;;;;5056444;28;20180;-87
2022/04/30 12:31:16;;;;;;;8.95;6.22;;;12.70;54.60;;;;;;5055640;28;20208;-87
2022/04/30 12:33:45;;;;;;;6.43;5.22;;;12.80;54.80;;;;;;5055703;28;20188;-87
2022/04/30 12:36:13;;;;;;;6.70;6.00;;;12.60;55.60;;;;;;5041087;28;20189;-87
2022/04/30 12:38:39;;;;;;;13.77;5.55;;;12.60;56.30;;;;;;5076134;28;20179;-87
2022/04/30 12:41:08;;;;;;;8.23;6.30;;;12.80;56.40;;;;;;5075599;28;20196;-86
2022/04/30 12:43:36;;;;;;;11.00;5.68;;;12.90;56.10;;;;;;5072013;28;20176;-87
2022/04/30 12:46:05;;;;;;;7.90;6.00;;;13.00;56.20;;;;;;5071369;28;20169;-87
2022/04/30 12:48:34;;;;;;;11.45;7.05;;;13.00;56.10;;;;;;5087673;28;20564;-87
2022/04/30 12:51:00;;;;;;;7.60;5.60;;;13.00;56.60;;;;;;5061952;28;20234;-87
2022/04/30 12:53:25;;;;;;;7.83;6.07;;;13.00;56.30;;;;;;5073171;28;20188;-87
2022/04/30 12:55:54;;;;;;;8.27;5.97;;;12.90;56.50;;;;;;5056603;28;20423;-86
2022/04/30 12:58:20;;;;;;;11.15;6.43;;;12.70;56.90;;;;;;5056467;28;20271;-85
2022/04/30 13:00:46;;;;;;;9.63;5.75;;;12.80;56.30;;;;;;5059654;28;20204;-85
2022/04/30 13:03:12;;;;;;;8.37;5.43;;;12.90;56.00;;;;;;5080321;28;20203;-86
2022/04/30 13:05:38;;;;;;;9.03;5.00;;;12.90;55.60;;;;;;5061330;28;20421;-86
2022/04/30 13:08:06;;;;;;;5.93;5.33;;;13.10;54.70;;;;;;5061546;28;20539;-86
2022/04/30 13:13:31;;;;;;;9.60;5.10;;;13.20;55.10;;;;;;5081906;28;20160;-86
2022/04/30 13:15:58;;;;;;;7.00;5.88;;;13.20;55.40;;;;;;5065653;28;20179;-86
2022/04/30 13:18:23;;;;;;;6.88;5.68;;;13.50;54.40;;;;;;5071447;28;20231;-86
2022/04/30 13:20:49;;;;;;;6.50;5.90;;;13.60;54.80;;;;;;5082745;28;20200;-86
2022/04/30 13:23:15;;;;;;;6.37;5.70;;;13.80;54.00;;;;;;5061737;28;20264;-86
2022/04/30 13:25:41;;;;;;;7.40;6.60;;;13.70;54.80;;;;;;5081016;28;20177;-86
2022/04/30 13:28:06;;;;;;;10.13;5.87;;;13.60;55.20;;;;;;5064119;28;20737;-88
2022/04/30 13:30:32;;;;;;;10.73;6.60;;;13.50;56.30;;;;;;5064006;28;20209;-86
2022/04/30 13:32:58;;;;;;;9.77;6.33;;;13.30;58.10;;;;;;5062196;28;20411;-87